Terminal Aerodrome Forecast
Issued by NWS

Home | Current Version | Previous Version | Text Only | Print | Product List | Glossary On
Versions: 1 2 3 4 5 6 7 8 9 10 11 12
999
FTUS43 KICT 191728
TAFRSL
TAF
KRSL 191728Z 1918/2018 17012KT P6SM FEW250
     FM200500 18014G22KT P6SM FEW250 WS020/19045KT
     FM201300 18016G24KT P6SM SCT200
     FM201700 18026G35KT P6SM SCT130=

USA.gov is the U.S. government's official web portal to all federal, state and local government web resources and services.